Decoded Metar for KSTJ (ST. JOSEPH in MO, USA) (IATA:STJ) | Meteo·Mobile Aviation Weather
aviador You're here:

KSTJ Decoded Metar

ST. JOSEPH in MO, USA
Report Time2019-05-22 06:53:00
UTC Time2019-05-22 07:04:19
Flight Rules vfr VFR
Wind200° at 15 Gusting to 26 kt
W.Decomp.*RWY 17: 13.5 kt HW 6.6 kt RCW
RWY 13: 6.1 kt HW 13.7 kt RCW
Visibility9999 m
Phenomena:N/A
Clouds:N/A
Expected CloudBase > 2,400 ft AGL from Temp-Dew spread
CeilingNone
Temp17°C (ISA +4)
Dew Point11°C (68% RH)
AAT11.9°C
QNH998 hPa
Density Alt1,923 ft
Elevation810 ft
Report Wrong Elevation
Raw Report
KSTJ 220653Z AUTO 20015G26KT 10SM CLR 17/11 A2947 RMK AO2 PK WND
20029/0607 SLP978 T01670106=

Extra information for KSTJ:More info

Metar Taf Metar & Taf Last 4 Metars F.Rules Stats Wind Profile Meteogram Temp Stats Airport Information Weather charts Add Link Nearby VenuesMetar ALERT Operation Metar Decoded Social comments

AIRNAV info for KSTJ